Time;durP1;ratioP1;P1;durP2;ratioP2;P2;SDS_P1;SDS_P2;PMS_P1;PMS_P2;Temp;Humidity;BMP_temperature;BMP_pressure;BME280_temperature;BME280_humidity;BME280_pressure;Samples;Min_cycle;Max_cycle;Signal;HPM_P1;HPM_P2
2023/03/13 00:00:49;;;;;;;2.53;1.23;;;;;;;;;;5092702;28;20236;-87
2023/03/13 00:03:16;;;;;;;1.90;1.80;;;;;;;;;;5073554;28;20217;-86
2023/03/13 00:05:43;;;;;;;1.63;1.50;;;;;;;;;;5075149;28;20205;-86
2023/03/13 00:08:10;;;;;;;2.00;1.90;;;;;;;;;;5085450;28;20780;-86
2023/03/13 00:10:37;;;;;;;2.27;2.17;;;;;;;;;;5088543;28;20212;-86
2023/03/13 00:13:04;;;;;;;1.57;1.47;;;;;;;;;;5085779;28;20209;-87
2023/03/13 00:15:32;;;;;;;1.87;1.70;;;;;;;;;;5073621;28;20196;-86
2023/03/13 00:17:59;;;;;;;2.37;1.87;;;;;;;;;;5082861;28;20223;-86
2023/03/13 00:20:26;;;;;;;1.93;1.80;;;;;;;;;;5079846;28;20800;-86
2023/03/13 00:22:53;;;;;;;1.67;1.57;;;;;;;;;;5083881;28;20205;-86
2023/03/13 00:25:19;;;;;;;7.03;2.33;;;;;;;;;;5073665;28;20776;-86
2023/03/13 00:27:46;;;;;;;1.70;1.60;;;;;;;;;;5073140;28;20591;-86
2023/03/13 00:30:13;;;;;;;2.10;1.90;;;;;;;;;;5090104;28;20204;-87
2023/03/13 00:32:42;;;;;;;1.53;1.43;;;;;;;;;;5083057;28;20209;-86
2023/03/13 00:35:09;;;;;;;2.23;2.07;;;;;;;;;;5073224;28;20259;-88
2023/03/13 00:37:36;;;;;;;3.33;1.53;;;;;;;;;;5073238;28;20691;-87
2023/03/13 00:40:04;;;;;;;2.17;2.00;;;;;;;;;;5089953;28;20224;-87
2023/03/13 00:42:30;;;;;;;2.43;1.93;;;;;;;;;;5082437;28;20208;-86
2023/03/13 00:44:57;;;;;;;2.87;2.27;;;;;;;;;;5086659;28;20216;-87
2023/03/13 00:47:24;;;;;;;2.33;2.17;;;;;;;;;;5083985;28;20220;-86
2023/03/13 00:49:52;;;;;;;4.73;3.60;;;;;;;;;;5075094;28;20217;-87
2023/03/13 00:52:19;;;;;;;2.50;2.30;;;;;;;;;;5073164;28;20262;-87
2023/03/13 00:54:46;;;;;;;2.20;1.97;;;;;;;;;;5072588;28;20303;-86
2023/03/13 00:57:12;;;;;;;2.50;2.20;;;;;;;;;;5072618;28;20271;-87
2023/03/13 00:59:39;;;;;;;4.07;2.37;;;;;;;;;;5077532;28;20227;-87
2023/03/13 01:02:06;;;;;;;2.57;1.80;;;;;;;;;;5081226;28;20213;-87
2023/03/13 01:04:33;;;;;;;2.87;2.10;;;;;;;;;;5078278;28;20215;-87
2023/03/13 01:07:01;;;;;;;3.73;2.27;;;;;;;;;;5092947;28;20341;-87
2023/03/13 01:09:28;;;;;;;7.17;2.20;;;;;;;;;;5078605;28;20255;-87
2023/03/13 01:11:55;;;;;;;2.57;2.37;;;;;;;;;;5091486;28;20204;-87
2023/03/13 01:14:22;;;;;;;3.03;2.67;;;;;;;;;;5079292;28;20206;-87
2023/03/13 01:16:48;;;;;;;3.20;2.83;;;;;;;;;;5092875;28;20208;-87
2023/03/13 01:19:16;;;;;;;2.10;1.90;;;;;;;;;;5073143;28;20274;-88
2023/03/13 01:21:46;;;;;;;2.97;2.00;;;;;;;;;;5085146;28;20204;-88
2023/03/13 01:24:15;;;;;;;2.60;2.37;;;;;;;;;;5086452;28;20216;-88
2023/03/13 01:26:42;;;;;;;2.50;1.87;;;;;;;;;;5073180;28;20287;-88
2023/03/13 01:29:09;;;;;;;2.90;2.70;;;;;;;;;;5092968;28;20673;-88
2023/03/13 01:31:36;;;;;;;1.93;1.83;;;;;;;;;;5092140;28;20212;-88
2023/03/13 01:34:05;;;;;;;2.40;2.20;;;;;;;;;;5072902;28;20205;-88
2023/03/13 01:36:32;;;;;;;3.13;2.10;;;;;;;;;;5087260;28;20204;-89
2023/03/13 01:39:00;;;;;;;2.53;2.33;;;;;;;;;;5093186;28;20216;-89
2023/03/13 01:41:30;;;;;;;2.23;2.10;;;;;;;;;;5079372;28;20205;-91
2023/03/13 01:43:57;;;;;;;3.50;2.23;;;;;;;;;;5084226;28;20205;-91
2023/03/13 01:46:26;;;;;;;2.27;2.07;;;;;;;;;;5075142;28;20212;-90
2023/03/13 01:48:55;;;;;;;2.33;2.07;;;;;;;;;;5083520;28;20643;-92
2023/03/13 01:51:24;;;;;;;2.93;2.20;;;;;;;;;;5085929;28;20212;-91
2023/03/13 01:53:56;;;;;;;2.93;2.30;;;;;;;;;;5083274;28;20257;-91
2023/03/13 01:56:27;;;;;;;1.93;1.83;;;;;;;;;;5074751;28;20193;-92
2023/03/13 01:58:57;;;;;;;2.23;2.03;;;;;;;;;;5072968;28;20308;-93
2023/03/13 02:01:24;;;;;;;2.37;2.27;;;;;;;;;;5072107;28;20781;-92
2023/03/13 02:03:51;;;;;;;2.37;2.13;;;;;;;;;;5072585;28;20227;-92
2023/03/13 02:06:18;;;;;;;1.90;1.80;;;;;;;;;;5073151;28;20254;-90
2023/03/13 02:08:49;;;;;;;4.63;2.13;;;;;;;;;;5073045;28;20723;-90
2023/03/13 02:11:22;;;;;;;2.57;2.37;;;;;;;;;;5073624;28;20205;-90
2023/03/13 02:13:50;;;;;;;2.40;2.20;;;;;;;;;;5072220;28;20205;-87
2023/03/13 02:16:19;;;;;;;2.53;2.33;;;;;;;;;;5071100;28;20737;-86
2023/03/13 02:18:46;;;;;;;1.97;1.87;;;;;;;;;;5073172;28;20205;-86
2023/03/13 02:21:18;;;;;;;2.50;2.30;;;;;;;;;;5091864;28;20228;-85
2023/03/13 02:23:52;;;;;;;2.40;2.20;;;;;;;;;;5095175;28;20208;-85
2023/03/13 02:26:20;;;;;;;2.80;2.40;;;;;;;;;;5077778;28;20212;-84
2023/03/13 02:28:49;;;;;;;3.43;3.13;;;;;;;;;;5091018;28;20216;-83
2023/03/13 02:31:16;;;;;;;9.63;2.67;;;;;;;;;;5077931;28;20270;-84
2023/03/13 02:33:44;;;;;;;2.33;2.13;;;;;;;;;;5077412;28;20208;-83
2023/03/13 02:36:12;;;;;;;2.57;2.37;;;;;;;;;;5089578;28;20299;-83
2023/03/13 02:38:44;;;;;;;2.63;2.43;;;;;;;;;;5078834;28;20209;-83
2023/03/13 02:41:11;;;;;;;3.10;2.80;;;;;;;;;;5090478;28;20293;-82
2023/03/13 02:43:39;;;;;;;2.90;2.53;;;;;;;;;;5097887;28;20284;-82
2023/03/13 02:46:09;;;;;;;2.63;2.40;;;;;;;;;;5084068;28;20692;-82
2023/03/13 02:48:38;;;;;;;2.10;1.97;;;;;;;;;;5071942;28;20226;-82
2023/03/13 02:51:08;;;;;;;2.33;2.23;;;;;;;;;;5084279;28;20212;-82
2023/03/13 02:53:35;;;;;;;2.70;2.50;;;;;;;;;;5098344;28;20257;-82
2023/03/13 02:56:03;;;;;;;2.27;2.07;;;;;;;;;;5084299;28;20212;-81
2023/03/13 02:58:39;;;;;;;2.40;2.20;;;;;;;;;;5097500;28;20204;-82
2023/03/13 03:01:06;;;;;;;2.40;2.13;;;;;;;;;;5080344;28;20312;-82
2023/03/13 03:03:34;;;;;;;2.43;2.30;;;;;;;;;;5077606;28;20207;-81
2023/03/13 03:06:01;;;;;;;2.30;2.07;;;;;;;;;;5094759;28;20200;-81
2023/03/13 03:08:28;;;;;;;2.53;2.33;;;;;;;;;;5086587;28;20236;-81
2023/03/13 03:10:55;;;;;;;3.60;2.83;;;;;;;;;;5076980;28;20684;-81
2023/03/13 03:13:22;;;;;;;4.57;4.17;;;;;;;;;;5077546;28;20212;-81
2023/03/13 03:15:50;;;;;;;4.37;3.43;;;;;;;;;;5077094;28;20197;-81
2023/03/13 03:18:17;;;;;;;8.17;5.47;;;;;;;;;;5088680;28;20208;-81
2023/03/13 03:20:44;;;;;;;4.57;3.50;;;;;;;;;;5079208;28;20286;-81
2023/03/13 03:23:10;;;;;;;2.93;2.73;;;;;;;;;;5088422;28;20273;-81
2023/03/13 03:25:37;;;;;;;2.23;1.97;;;;;;;;;;5092560;28;20273;-81
2023/03/13 03:28:04;;;;;;;2.20;2.10;;;;;;;;;;5089634;28;20211;-81
2023/03/13 03:30:31;;;;;;;2.23;2.03;;;;;;;;;;5091509;28;20209;-81
2023/03/13 03:32:59;;;;;;;13.67;4.47;;;;;;;;;;5075986;28;20205;-81
2023/03/13 03:35:26;;;;;;;3.67;3.30;;;;;;;;;;5086507;28;20209;-81
2023/03/13 03:37:53;;;;;;;3.27;2.97;;;;;;;;;;5074118;28;20223;-81
2023/03/13 03:40:20;;;;;;;114.47;46.77;;;;;;;;;;5087234;28;20229;-81
2023/03/13 03:42:47;;;;;;;58.10;28.87;;;;;;;;;;5087090;28;20212;-81
2023/03/13 03:45:13;;;;;;;82.23;37.50;;;;;;;;;;5093941;28;20266;-81
2023/03/13 03:47:40;;;;;;;13.93;7.37;;;;;;;;;;5093867;28;20284;-81
2023/03/13 03:50:10;;;;;;;9.13;4.83;;;;;;;;;;5087086;28;20209;-81
2023/03/13 03:52:37;;;;;;;9.77;4.40;;;;;;;;;;5073380;28;20201;-81
2023/03/13 03:55:05;;;;;;;7.57;5.00;;;;;;;;;;5073378;28;20668;-81
2023/03/13 03:57:32;;;;;;;5.63;5.13;;;;;;;;;;5073307;28;20200;-81
2023/03/13 03:59:58;;;;;;;7.97;6.57;;;;;;;;;;5073354;28;20205;-81
2023/03/13 04:02:25;;;;;;;4.87;4.17;;;;;;;;;;5078509;28;20204;-81
2023/03/13 04:04:52;;;;;;;3.30;3.00;;;;;;;;;;5085988;28;20201;-81
2023/03/13 04:07:20;;;;;;;3.57;3.27;;;;;;;;;;5081872;28;20619;-81
2023/03/13 04:09:46;;;;;;;4.87;4.37;;;;;;;;;;5085377;28;20204;-81
2023/03/13 04:12:13;;;;;;;6.47;5.97;;;;;;;;;;5087868;28;20204;-81
2023/03/13 04:14:40;;;;;;;5.17;4.67;;;;;;;;;;5073267;28;20258;-81
2023/03/13 04:17:07;;;;;;;4.33;4.03;;;;;;;;;;5073537;28;20334;-84
2023/03/13 04:19:36;;;;;;;4.90;4.20;;;;;;;;;;5073161;28;20205;-81
2023/03/13 04:22:02;;;;;;;3.80;3.50;;;;;;;;;;5072195;28;20232;-80
2023/03/13 04:24:30;;;;;;;3.20;2.90;;;;;;;;;;5072639;28;20255;-79
2023/03/13 04:26:57;;;;;;;5.93;2.93;;;;;;;;;;5073532;28;20688;-80
2023/03/13 04:29:25;;;;;;;7.37;3.60;;;;;;;;;;5084819;28;20745;-80
2023/03/13 04:31:51;;;;;;;3.90;2.90;;;;;;;;;;5086797;28;20204;-80
2023/03/13 04:34:18;;;;;;;3.03;2.73;;;;;;;;;;5091759;28;20652;-80
2023/03/13 04:36:45;;;;;;;4.60;3.77;;;;;;;;;;5092970;28;20208;-81
2023/03/13 04:39:11;;;;;;;4.30;3.77;;;;;;;;;;5072711;28;20692;-81
2023/03/13 04:41:40;;;;;;;5.77;4.17;;;;;;;;;;5072736;28;20232;-81
2023/03/13 04:44:06;;;;;;;9.33;4.10;;;;;;;;;;5072441;28;20200;-80
2023/03/13 04:46:33;;;;;;;3.87;3.47;;;;;;;;;;5072765;28;20209;-81
2023/03/13 04:49:00;;;;;;;3.40;3.07;;;;;;;;;;5092470;28;20208;-80
2023/03/13 04:51:26;;;;;;;3.13;2.83;;;;;;;;;;5091317;28;20679;-81
2023/03/13 04:53:53;;;;;;;4.10;3.20;;;;;;;;;;5072812;28;20302;-81
2023/03/13 04:56:23;;;;;;;3.67;3.23;;;;;;;;;;5085825;28;20265;-81
2023/03/13 04:58:52;;;;;;;4.50;2.77;;;;;;;;;;5072414;28;20224;-79
2023/03/13 05:01:18;;;;;;;3.20;2.90;;;;;;;;;;5085594;28;20232;-81
2023/03/13 05:03:46;;;;;;;3.70;3.40;;;;;;;;;;5072083;28;20254;-81
2023/03/13 05:06:13;;;;;;;3.37;3.07;;;;;;;;;;5073952;28;20266;-81
2023/03/13 05:08:42;;;;;;;4.30;3.77;;;;;;;;;;5083917;28;20358;-81
2023/03/13 05:11:08;;;;;;;3.70;3.27;;;;;;;;;;5078330;28;20201;-81
2023/03/13 05:13:35;;;;;;;3.73;3.17;;;;;;;;;;5083807;28;20212;-81
2023/03/13 05:16:03;;;;;;;8.80;7.07;;;;;;;;;;5078348;28;20203;-81
2023/03/13 05:18:30;;;;;;;14.70;11.90;;;;;;;;;;5079852;28;20209;-80
2023/03/13 05:20:57;;;;;;;6.50;5.50;;;;;;;;;;5075239;28;20607;-81
2023/03/13 05:23:24;;;;;;;7.13;4.67;;;;;;;;;;5071608;28;20200;-80
2023/03/13 05:25:51;;;;;;;4.57;4.07;;;;;;;;;;5085337;28;20197;-81
2023/03/13 05:28:17;;;;;;;25.73;11.00;;;;;;;;;;5071342;28;20596;-80
2023/03/13 05:30:47;;;;;;;15.20;7.60;;;;;;;;;;5071888;28;20201;-81
2023/03/13 05:33:15;;;;;;;23.00;10.27;;;;;;;;;;5071588;28;20293;-81
2023/03/13 05:35:42;;;;;;;161.37;63.17;;;;;;;;;;5073569;28;20244;-81
2023/03/13 05:38:09;;;;;;;45.37;20.73;;;;;;;;;;5082332;28;20200;-81
2023/03/13 05:40:38;;;;;;;13.73;6.63;;;;;;;;;;5071332;28;20213;-81
2023/03/13 05:43:05;;;;;;;6.57;4.83;;;;;;;;;;5070994;28;20751;-80
2023/03/13 05:45:32;;;;;;;3.97;3.57;;;;;;;;;;5073924;28;20208;-80
2023/03/13 05:47:59;;;;;;;3.50;2.73;;;;;;;;;;5082203;28;20270;-81
2023/03/13 05:50:27;;;;;;;5.20;3.73;;;;;;;;;;5084689;28;20216;-81
2023/03/13 05:52:54;;;;;;;3.23;3.03;;;;;;;;;;5081198;28;20678;-82
2023/03/13 05:55:21;;;;;;;3.13;2.83;;;;;;;;;;5077815;28;20196;-82
2023/03/13 05:57:49;;;;;;;3.63;2.80;;;;;;;;;;5080605;28;20205;-83
2023/03/13 06:00:19;;;;;;;3.23;2.93;;;;;;;;;;5074922;28;20204;-83
2023/03/13 06:02:48;;;;;;;2.97;2.77;;;;;;;;;;5080141;28;20663;-84
2023/03/13 06:05:15;;;;;;;3.80;2.87;;;;;;;;;;5076229;28;20642;-85
2023/03/13 06:07:44;;;;;;;3.47;3.20;;;;;;;;;;5079298;28;20260;-87
2023/03/13 06:10:11;;;;;;;3.33;2.60;;;;;;;;;;5084925;28;20205;-89
2023/03/13 06:12:38;;;;;;;3.47;3.17;;;;;;;;;;5085143;28;20205;-87
2023/03/13 06:15:08;;;;;;;2.97;2.67;;;;;;;;;;5082982;28;20204;-87
2023/03/13 06:17:35;;;;;;;3.90;3.57;;;;;;;;;;5086540;28;20216;-87
2023/03/13 06:20:03;;;;;;;5.70;4.27;;;;;;;;;;5071843;28;20209;-87
2023/03/13 06:22:30;;;;;;;4.60;3.13;;;;;;;;;;5084772;28;20697;-87
2023/03/13 06:24:59;;;;;;;3.40;3.10;;;;;;;;;;5071893;28;20632;-87
2023/03/13 06:27:25;;;;;;;3.80;3.47;;;;;;;;;;5065092;28;20211;-87
2023/03/13 06:29:52;;;;;;;3.07;2.77;;;;;;;;;;5077612;28;20197;-87
2023/03/13 06:32:19;;;;;;;2.90;2.70;;;;;;;;;;5084738;28;20228;-86
2023/03/13 06:34:46;;;;;;;3.43;3.13;;;;;;;;;;5084919;28;20728;-87
2023/03/13 06:37:12;;;;;;;3.87;3.40;;;;;;;;;;5078501;28;20219;-87
2023/03/13 06:39:39;;;;;;;3.80;2.80;;;;;;;;;;5078149;28;20200;-86
2023/03/13 06:42:08;;;;;;;3.33;2.70;;;;;;;;;;5083394;28;20229;-86
2023/03/13 06:44:35;;;;;;;3.77;3.10;;;;;;;;;;5071920;28;20655;-86
2023/03/13 06:47:04;;;;;;;3.30;3.07;;;;;;;;;;5091356;28;20211;-85
2023/03/13 06:49:31;;;;;;;3.43;3.10;;;;;;;;;;5075927;28;20205;-86
2023/03/13 06:51:58;;;;;;;3.03;2.63;;;;;;;;;;5070769;28;20262;-85
2023/03/13 06:54:25;;;;;;;3.03;2.73;;;;;;;;;;5071198;28;20280;-86
2023/03/13 06:56:52;;;;;;;3.07;2.77;;;;;;;;;;5079679;28;20246;-85
2023/03/13 06:59:20;;;;;;;2.70;2.50;;;;;;;;;;5077164;28;20205;-86
2023/03/13 07:01:47;;;;;;;2.93;2.47;;;;;;;;;;5091068;28;20281;-86
2023/03/13 07:04:15;;;;;;;2.40;2.20;;;;;;;;;;5090831;28;20223;-87
2023/03/13 07:06:42;;;;;;;4.03;2.00;;;;;;;;;;5090657;28;20204;-85
2023/03/13 07:09:09;;;;;;;3.40;2.50;;;;;;;;;;5088896;28;20228;-85
2023/03/13 07:11:38;;;;;;;2.50;2.30;;;;;;;;;;5075061;28;20209;-85
2023/03/13 07:14:04;;;;;;;3.63;2.40;;;;;;;;;;5077657;28;20208;-85
2023/03/13 07:16:33;;;;;;;2.50;2.30;;;;;;;;;;5094812;28;20639;-85
2023/03/13 07:19:02;;;;;;;2.93;2.40;;;;;;;;;;5077781;28;20205;-85
2023/03/13 07:21:28;;;;;;;1.83;1.67;;;;;;;;;;5084772;28;20219;-86
2023/03/13 07:23:55;;;;;;;2.57;2.37;;;;;;;;;;5094673;28;20215;-85
2023/03/13 07:26:22;;;;;;;2.00;1.83;;;;;;;;;;5083520;28;20270;-85
2023/03/13 07:28:49;;;;;;;4.93;3.63;;;;;;;;;;5087317;28;20234;-85
2023/03/13 07:31:17;;;;;;;2.30;2.10;;;;;;;;;;5074303;28;20204;-86
2023/03/13 07:33:45;;;;;;;2.30;2.10;;;;;;;;;;5079000;28;20239;-84
2023/03/13 07:36:13;;;;;;;2.00;1.90;;;;;;;;;;5094050;28;20257;-85
2023/03/13 07:38:40;;;;;;;1.67;1.50;;;;;;;;;;5080589;28;20251;-85
2023/03/13 07:41:07;;;;;;;2.23;1.87;;;;;;;;;;5094226;28;20631;-85
2023/03/13 07:43:34;;;;;;;4.13;3.00;;;;;;;;;;5093596;28;20208;-85
2023/03/13 07:46:02;;;;;;;2.40;2.20;;;;;;;;;;5081119;28;20316;-85
2023/03/13 07:48:30;;;;;;;1.97;1.87;;;;;;;;;;5073691;28;20289;-85
2023/03/13 07:50:59;;;;;;;3.07;2.77;;;;;;;;;;5086999;28;20661;-86
2023/03/13 07:53:26;;;;;;;2.23;1.80;;;;;;;;;;5081085;28;20640;-85
2023/03/13 07:55:55;;;;;;;1.90;1.80;;;;;;;;;;5079292;28;20255;-85
2023/03/13 07:58:22;;;;;;;2.03;1.83;;;;;;;;;;5073543;28;20216;-85
2023/03/13 08:00:49;;;;;;;2.60;1.60;;;;;;;;;;5074851;28;20209;-85
2023/03/13 08:03:15;;;;;;;2.13;1.93;;;;;;;;;;5093526;28;20768;-86
2023/03/13 08:05:42;;;;;;;3.60;3.10;;;;;;;;;;5093341;28;20204;-85
2023/03/13 08:08:10;;;;;;;2.50;2.30;;;;;;;;;;5093034;28;20290;-84
2023/03/13 08:10:38;;;;;;;2.30;2.10;;;;;;;;;;5078858;28;20682;-85
2023/03/13 08:13:06;;;;;;;1.90;1.70;;;;;;;;;;5084759;28;20706;-85
2023/03/13 08:15:33;;;;;;;1.80;1.70;;;;;;;;;;5073029;28;20205;-85
2023/03/13 08:17:59;;;;;;;3.80;3.50;;;;;;;;;;5072967;28;20201;-85
2023/03/13 08:20:26;;;;;;;3.07;2.77;;;;;;;;;;5072155;28;20212;-85
2023/03/13 08:22:55;;;;;;;2.57;2.37;;;;;;;;;;5072879;28;20221;-85
2023/03/13 08:25:24;;;;;;;1.80;1.70;;;;;;;;;;5089455;28;20628;-84
2023/03/13 08:27:50;;;;;;;2.87;2.50;;;;;;;;;;5093205;28;20242;-85
2023/03/13 08:30:18;;;;;;;2.47;2.27;;;;;;;;;;5076345;28;20672;-86
2023/03/13 08:32:44;;;;;;;2.17;2.00;;;;;;;;;;5073160;28;20205;-85
2023/03/13 08:35:11;;;;;;;2.50;2.30;;;;;;;;;;5072568;28;20675;-86
2023/03/13 08:37:38;;;;;;;2.50;2.30;;;;;;;;;;5083027;28;20208;-85
2023/03/13 08:40:09;;;;;;;2.33;2.13;;;;;;;;;;5089137;28;20205;-85
2023/03/13 08:42:39;;;;;;;6.00;2.57;;;;;;;;;;5083551;28;20227;-85
2023/03/13 08:45:07;;;;;;;2.20;2.10;;;;;;;;;;5087273;28;20215;-85
2023/03/13 08:47:33;;;;;;;2.13;2.03;;;;;;;;;;5084711;28;20200;-85
2023/03/13 08:50:00;;;;;;;1.93;1.83;;;;;;;;;;5086911;28;20672;-85
2023/03/13 08:52:27;;;;;;;1.83;1.70;;;;;;;;;;5072195;28;20704;-84
2023/03/13 08:54:54;;;;;;;2.77;2.43;;;;;;;;;;5078304;28;20235;-85
2023/03/13 08:57:21;;;;;;;2.83;2.63;;;;;;;;;;5079875;28;20197;-85
2023/03/13 08:59:50;;;;;;;4.37;3.97;;;;;;;;;;5072539;28;20208;-89
2023/03/13 09:02:18;;;;;;;1.90;1.80;;;;;;;;;;5085309;28;20232;-85
2023/03/13 09:04:47;;;;;;;2.50;2.10;;;;;;;;;;5085593;28;20236;-85
2023/03/13 09:07:14;;;;;;;2.50;2.30;;;;;;;;;;5071962;28;20295;-85
2023/03/13 09:09:41;;;;;;;2.13;1.93;;;;;;;;;;5071865;28;20221;-85
2023/03/13 09:12:08;;;;;;;3.93;3.17;;;;;;;;;;5072759;28;20274;-85
2023/03/13 09:14:35;;;;;;;3.37;3.07;;;;;;;;;;5092621;28;20269;-85
2023/03/13 09:17:04;;;;;;;5.90;4.53;;;;;;;;;;5078825;28;20210;-85
2023/03/13 09:19:30;;;;;;;3.93;3.33;;;;;;;;;;5084185;28;20594;-85
2023/03/13 09:21:57;;;;;;;1.63;1.53;;;;;;;;;;5084589;28;20224;-85
2023/03/13 09:24:25;;;;;;;2.50;2.27;;;;;;;;;;5072290;28;20242;-85
2023/03/13 09:26:52;;;;;;;2.10;1.80;;;;;;;;;;5071886;28;20204;-85
2023/03/13 09:29:18;;;;;;;4.37;3.60;;;;;;;;;;5080246;28;20207;-87
2023/03/13 09:31:45;;;;;;;2.63;2.30;;;;;;;;;;5089276;28;20208;-85
2023/03/13 09:34:13;;;;;;;2.63;2.20;;;;;;;;;;5071558;28;20213;-85
2023/03/13 09:36:40;;;;;;;4.17;2.40;;;;;;;;;;5084936;28;20286;-85
2023/03/13 09:39:07;;;;;;;2.27;2.00;;;;;;;;;;5071952;28;20204;-85
2023/03/13 09:41:37;;;;;;;2.60;2.40;;;;;;;;;;5084872;28;20753;-84
2023/03/13 09:44:09;;;;;;;3.97;2.43;;;;;;;;;;5071717;28;20201;-85
2023/03/13 09:46:41;;;;;;;2.60;2.40;;;;;;;;;;5089484;28;20699;-85
2023/03/13 09:49:15;;;;;;;2.00;1.73;;;;;;;;;;5079633;28;20209;-85
2023/03/13 09:51:44;;;;;;;2.73;2.40;;;;;;;;;;5071393;28;20205;-85
2023/03/13 09:54:22;;;;;;;2.13;1.93;;;;;;;;;;5071266;28;20217;-86
2023/03/13 09:56:54;;;;;;;1.77;1.67;;;;;;;;;;5083004;28;20209;-85
2023/03/13 09:59:25;;;;;;;3.20;2.73;;;;;;;;;;5087597;28;20639;-85
2023/03/13 10:01:54;;;;;;;3.23;2.93;;;;;;;;;;5091543;28;20204;-86
2023/03/13 10:04:29;;;;;;;3.17;2.87;;;;;;;;;;5073983;28;20691;-86
2023/03/13 10:06:55;;;;;;;3.53;1.80;;;;;;;;;;5071257;28;20200;-85
2023/03/13 10:09:26;;;;;;;1.80;1.70;;;;;;;;;;5084030;28;20285;-85
2023/03/13 10:11:59;;;;;;;1.50;1.40;;;;;;;;;;5083379;28;20616;-85
2023/03/13 10:14:30;;;;;;;1.97;1.73;;;;;;;;;;5091228;28;20208;-85
2023/03/13 10:17:02;;;;;;;3.80;1.57;;;;;;;;;;5091128;28;20291;-86
2023/03/13 10:19:36;;;;;;;2.53;1.53;;;;;;;;;;5079304;28;20239;-85
2023/03/13 10:22:04;;;;;;;5.23;2.53;;;;;;;;;;5090866;28;20277;-85
2023/03/13 10:24:33;;;;;;;1.90;1.77;;;;;;;;;;5082419;28;20216;-84
2023/03/13 10:27:00;;;;;;;2.50;2.30;;;;;;;;;;5073971;28;20270;-86
2023/03/13 10:29:29;;;;;;;2.30;1.53;;;;;;;;;;5091454;28;20687;-85
2023/03/13 10:31:58;;;;;;;1.50;1.40;;;;;;;;;;5074153;28;20292;-86
2023/03/13 10:34:26;;;;;;;1.40;1.30;;;;;;;;;;5081666;28;20205;-86
2023/03/13 10:36:58;;;;;;;2.20;1.63;;;;;;;;;;5072945;28;20212;-86
2023/03/13 10:39:27;;;;;;;3.37;2.57;;;;;;;;;;5083297;28;20200;-86
2023/03/13 10:41:58;;;;;;;3.40;2.10;;;;;;;;;;5071075;28;20201;-87
2023/03/13 10:44:31;;;;;;;2.27;2.07;;;;;;;;;;5088283;28;20204;-86
2023/03/13 10:47:02;;;;;;;2.63;2.07;;;;;;;;;;5062598;28;20278;-85
2023/03/13 10:49:30;;;;;;;5.63;4.33;;;;;;;;;;5088420;28;20211;-85
2023/03/13 10:52:00;;;;;;;6.23;5.00;;;;;;;;;;5074830;28;20209;-85
2023/03/13 10:54:28;;;;;;;3.43;3.13;;;;;;;;;;5077082;28;20206;-85
2023/03/13 10:57:18;;;;;;;3.57;3.27;;;;;;;;;;5094605;28;20204;-86
2023/03/13 10:59:47;;;;;;;4.63;4.17;;;;;;;;;;5081138;28;20201;-86
2023/03/13 11:02:23;;;;;;;4.03;3.63;;;;;;;;;;5094793;28;20263;-86
2023/03/13 11:04:52;;;;;;;5.90;4.33;;;;;;;;;;5068854;28;20249;-85
2023/03/13 11:07:26;;;;;;;3.40;3.10;;;;;;;;;;5092935;28;20207;-85
2023/03/13 11:10:01;;;;;;;8.63;6.90;;;;;;;;;;5083371;28;20203;-86
2023/03/13 11:12:29;;;;;;;11.97;8.43;;;;;;;;;;5094698;28;20639;-86
2023/03/13 11:14:59;;;;;;;14.63;10.40;;;;;;;;;;5094729;28;20208;-86
2023/03/13 11:17:32;;;;;;;11.33;6.13;;;;;;;;;;5077158;28;20254;-85
2023/03/13 11:20:16;;;;;;;5.77;3.63;;;;;;;;;;5074222;28;20209;-85
2023/03/13 11:22:51;;;;;;;6.27;5.23;;;;;;;;;;5069361;28;20231;-86
2023/03/13 11:25:23;;;;;;;3.37;2.20;;;;;;;;;;5080928;28;20235;-86
2023/03/13 11:27:58;;;;;;;5.80;3.83;;;;;;;;;;5084746;28;20212;-85
2023/03/13 11:30:45;;;;;;;7.67;5.00;;;;;;;;;;5091999;28;20277;-86
2023/03/13 11:33:20;;;;;;;2.97;2.60;;;;;;;;;;5094139;28;20651;-87
2023/03/13 11:35:50;;;;;;;3.57;2.80;;;;;;;;;;5085836;28;20216;-86
2023/03/13 11:38:22;;;;;;;1.90;1.80;;;;;;;;;;5074292;28;20201;-86
2023/03/13 11:40:54;;;;;;;3.27;2.60;;;;;;;;;;5073878;28;20258;-86
2023/03/13 11:43:50;;;;;;;2.50;2.23;;;;;;;;;;5091368;28;20292;-86
2023/03/13 11:46:24;;;;;;;2.03;1.80;;;;;;;;;;5072852;28;20390;-86
2023/03/13 11:49:16;;;;;;;3.00;1.50;;;;;;;;;;5094170;28;20697;-86
2023/03/13 11:51:51;;;;;;;1.70;1.60;;;;;;;;;;5074402;28;20208;-85
2023/03/13 11:54:31;;;;;;;7.33;3.77;;;;;;;;;;5087103;28;20215;-86
2023/03/13 11:57:00;;;;;;;17.53;14.53;;;;;;;;;;5084545;28;20205;-86
2023/03/13 11:59:34;;;;;;;8.83;6.70;;;;;;;;;;5076558;28;20686;-87
2023/03/13 12:02:03;;;;;;;3.87;3.57;;;;;;;;;;5093778;28;20582;-87
2023/03/13 12:04:35;;;;;;;1.73;1.63;;;;;;;;;;5075128;28;20236;-87
2023/03/13 12:07:05;;;;;;;4.43;1.67;;;;;;;;;;5086194;28;20204;-87
2023/03/13 12:09:35;;;;;;;2.53;2.23;;;;;;;;;;5080340;28;20228;-87
2023/03/13 12:12:03;;;;;;;1.70;1.60;;;;;;;;;;5092603;28;20203;-86
2023/03/13 12:14:34;;;;;;;1.90;1.70;;;;;;;;;;5060152;28;20225;-86
2023/03/13 12:17:02;;;;;;;1.93;1.77;;;;;;;;;;5072703;28;20604;-87
2023/03/13 12:19:33;;;;;;;2.20;1.63;;;;;;;;;;5081032;28;20213;-86
2023/03/13 12:22:08;;;;;;;1.50;1.40;;;;;;;;;;5091987;28;20203;-87
2023/03/13 12:24:38;;;;;;;5.90;1.67;;;;;;;;;;5073230;28;20235;-86
2023/03/13 12:27:11;;;;;;;2.20;2.00;;;;;;;;;;5076029;28;20215;-87
2023/03/13 12:29:45;;;;;;;1.90;1.80;;;;;;;;;;5082230;28;20687;-86
2023/03/13 12:32:18;;;;;;;11.57;7.17;;;;;;;;;;5072913;28;20208;-86
2023/03/13 12:34:52;;;;;;;3.53;2.80;;;;;;;;;;5073273;28;20205;-86
2023/03/13 12:37:23;;;;;;;1.97;1.87;;;;;;;;;;5060768;28;20193;-85
2023/03/13 12:39:56;;;;;;;2.80;2.60;;;;;;;;;;5087989;28;20211;-86
2023/03/13 12:42:39;;;;;;;2.73;2.40;;;;;;;;;;5083809;28;20205;-87
2023/03/13 12:45:08;;;;;;;2.77;2.53;;;;;;;;;;5072940;28;20201;-87
2023/03/13 12:47:59;;;;;;;2.20;1.60;;;;;;;;;;5085014;28;20261;-87
2023/03/13 12:50:33;;;;;;;2.10;2.00;;;;;;;;;;5084349;28;20208;-87
2023/03/13 12:53:20;;;;;;;3.23;2.73;;;;;;;;;;5086306;28;20197;-87
2023/03/13 12:56:07;;;;;;;3.70;2.63;;;;;;;;;;5085523;28;20678;-87
2023/03/13 12:58:48;;;;;;;2.60;2.40;;;;;;;;;;5092418;28;20200;-87
2023/03/13 13:01:19;;;;;;;2.63;2.30;;;;;;;;;;5074436;28;20208;-87
2023/03/13 13:03:52;;;;;;;2.27;2.07;;;;;;;;;;5072610;28;20236;-87
2023/03/13 13:06:19;;;;;;;1.97;1.87;;;;;;;;;;5092209;28;20200;-87
2023/03/13 13:09:08;;;;;;;8.10;5.57;;;;;;;;;;5092054;28;20236;-87
2023/03/13 13:11:46;;;;;;;8.87;7.63;;;;;;;;;;5052760;28;20220;-86
2023/03/13 13:14:49;;;;;;;3.63;3.10;;;;;;;;;;5083209;28;20195;-87
2023/03/13 13:17:19;;;;;;;8.53;7.30;;;;;;;;;;5074633;28;20209;-86
2023/03/13 13:19:47;;;;;;;4.23;3.83;;;;;;;;;;5092878;28;20215;-87
2023/03/13 13:22:46;;;;;;;2.07;1.97;;;;;;;;;;5088984;28;20208;-87
2023/03/13 13:25:34;;;;;;;2.03;1.93;;;;;;;;;;5072944;28;20238;-88
2023/03/13 13:28:26;;;;;;;2.30;2.10;;;;;;;;;;5081988;28;20205;-87
2023/03/13 13:30:54;;;;;;;2.60;2.33;;;;;;;;;;5060180;28;20205;-87
2023/03/13 13:33:39;;;;;;;3.90;3.60;;;;;;;;;;5072005;28;20295;-87
2023/03/13 13:36:31;;;;;;;6.10;4.87;;;;;;;;;;5083191;28;20298;-87
2023/03/13 13:38:58;;;;;;;4.33;2.97;;;;;;;;;;5062627;28;20273;-88
2023/03/13 13:41:43;;;;;;;1.80;1.70;;;;;;;;;;5091564;28;20244;-87
2023/03/13 13:44:28;;;;;;;2.17;1.93;;;;;;;;;;5081076;28;20626;-87
2023/03/13 13:46:57;;;;;;;2.83;2.63;;;;;;;;;;5085567;28;20737;-87
2023/03/13 13:49:35;;;;;;;3.17;2.97;;;;;;;;;;5071868;28;20216;-87
2023/03/13 13:52:31;;;;;;;2.53;2.33;;;;;;;;;;5068129;28;20578;-87
2023/03/13 13:54:58;;;;;;;2.30;1.90;;;;;;;;;;5086248;28;20208;-87
2023/03/13 13:57:29;;;;;;;2.50;2.30;;;;;;;;;;5084714;28;20215;-87
2023/03/13 14:00:04;;;;;;;1.80;1.70;;;;;;;;;;5092079;28;20261;-87
2023/03/13 14:02:32;;;;;;;6.03;4.10;;;;;;;;;;5076587;28;20196;-88
2023/03/13 14:05:05;;;;;;;5.27;2.40;;;;;;;;;;5071377;28;20282;-87
2023/03/13 14:07:44;;;;;;;1.70;1.60;;;;;;;;;;5071129;28;20201;-87
2023/03/13 14:10:21;;;;;;;2.07;1.87;;;;;;;;;;5082603;28;20207;-88
2023/03/13 14:12:52;;;;;;;4.40;3.43;;;;;;;;;;5091397;28;20261;-87
2023/03/13 14:15:22;;;;;;;4.47;3.50;;;;;;;;;;5077928;28;20204;-88
2023/03/13 14:17:50;;;;;;;3.23;2.00;;;;;;;;;;5083797;28;20209;-87
2023/03/13 14:20:22;;;;;;;1.57;1.47;;;;;;;;;;5085945;28;20261;-87
2023/03/13 14:22:52;;;;;;;3.87;1.90;;;;;;;;;;5082809;28;20213;-87
2023/03/13 14:25:19;;;;;;;5.17;1.90;;;;;;;;;;5068728;28;20220;-87
2023/03/13 14:27:47;;;;;;;1.87;1.63;;;;;;;;;;5060986;28;20209;-88
2023/03/13 14:30:18;;;;;;;7.17;2.40;;;;;;;;;;5087359;28;20637;-88
2023/03/13 14:32:47;;;;;;;2.33;2.00;;;;;;;;;;5091743;28;20251;-87
2023/03/13 14:35:18;;;;;;;1.83;1.73;;;;;;;;;;5078154;28;20223;-87
2023/03/13 14:37:45;;;;;;;5.10;1.97;;;;;;;;;;5079887;28;20673;-87
2023/03/13 14:40:29;;;;;;;3.87;1.90;;;;;;;;;;5084736;28;20209;-87
2023/03/13 14:42:57;;;;;;;2.90;2.00;;;;;;;;;;5086099;28;20223;-87
2023/03/13 14:45:27;;;;;;;2.10;1.90;;;;;;;;;;5091518;28;20224;-87
2023/03/13 14:47:56;;;;;;;3.87;2.03;;;;;;;;;;5088549;28;20251;-87
2023/03/13 14:50:25;;;;;;;1.87;1.77;;;;;;;;;;5070964;28;20201;-87
2023/03/13 14:52:53;;;;;;;2.50;1.97;;;;;;;;;;5087833;28;20295;-87
2023/03/13 14:55:34;;;;;;;2.33;2.00;;;;;;;;;;5091124;28;20204;-87
2023/03/13 14:58:03;;;;;;;1.60;1.50;;;;;;;;;;5085602;28;20265;-87